Argyle, Illinois
Current Conditions -  °F | °C
As of 9:52 PM on Sunday 23 Nov 2014 (Local Time) from KRFD Reporting Station
Light Rain Light Rain  
Wind Chill: 48°   Ceiling: 400
Heat Index: 48°   Visibility: 1mi
Dew Point: 46°   Wind: 0mph
Humidity: 93%   Direction: NA
Pressure: 29.19"   Gusts: NA
Location:  42.3911°N, 88.9094°W
Report Text: KRFD 240352Z 00000KT 1SM R01/P6000FT -RA BR OVC004 09/08 A2919 RMK AO2 TWR VIS 2 1/2 SLP886 P0003 T00890078
Loading
Personal Weather Stations






























Interactive Weather Map New forecast layout! Learn more

10-Day Weather Forecast

Advertisements
Track Severe Weather on mobile